createdAt,value
2017-12-17T00:01:55.917Z,9.20
2017-12-17T00:04:25.400Z,11.10
2017-12-17T00:06:57.665Z,13.25
2017-12-17T00:09:25.781Z,12.25
2017-12-17T00:11:53.082Z,10.27
2017-12-17T00:14:20.060Z,9.52
2017-12-17T00:16:46.804Z,8.77
2017-12-17T00:19:13.622Z,9.82
2017-12-17T00:21:41.099Z,9.10
2017-12-17T00:24:09.319Z,8.43
2017-12-17T00:26:37.200Z,12.45
2017-12-17T00:29:03.951Z,14.23
2017-12-17T00:31:30.959Z,9.93
2017-12-17T00:33:59.052Z,9.65
2017-12-17T00:36:26.526Z,9.63
2017-12-17T00:38:53.281Z,11.32
2017-12-17T00:41:21.514Z,11.43
2017-12-17T00:43:51.776Z,12.43
2017-12-17T00:46:24.800Z,8.88
2017-12-17T00:51:24.979Z,10.38
2017-12-17T00:53:53.039Z,9.80
2017-12-17T00:56:21.079Z,10.52
2017-12-17T00:58:47.802Z,10.43
2017-12-17T01:04:04.018Z,11.05
2017-12-17T01:06:32.823Z,10.70
2017-12-17T01:09:00.686Z,10.10
2017-12-17T01:11:28.163Z,10.73
2017-12-17T01:14:00.057Z,11.25
2017-12-17T01:16:31.192Z,12.20
2017-12-17T01:18:58.037Z,9.50
2017-12-17T01:21:27.892Z,10.23
2017-12-17T01:24:01.779Z,10.30
2017-12-17T01:26:29.985Z,9.75
2017-12-17T01:28:59.650Z,10.85
2017-12-17T01:31:27.697Z,11.82
2017-12-17T01:33:55.295Z,9.07
2017-12-17T01:36:24.090Z,10.82
2017-12-17T01:38:51.782Z,9.70
2017-12-17T01:41:18.548Z,11.20
2017-12-17T01:43:45.294Z,10.93
2017-12-17T01:46:14.377Z,10.25
2017-12-17T01:48:41.137Z,10.63
2017-12-17T01:51:07.886Z,10.07
2017-12-17T01:53:35.630Z,11.10
2017-12-17T01:56:02.505Z,11.90
2017-12-17T01:58:29.607Z,10.88
2017-12-17T02:00:56.403Z,10.00
2017-12-17T02:05:55.167Z,9.85
2017-12-17T02:08:22.022Z,9.77
2017-12-17T02:10:48.821Z,10.55
2017-12-17T02:13:15.588Z,10.30
2017-12-17T02:15:42.378Z,11.12
2017-12-17T02:18:09.115Z,12.88
2017-12-17T02:20:35.946Z,9.65
2017-12-17T02:23:02.753Z,9.85
2017-12-17T02:25:29.502Z,12.10
2017-12-17T02:27:56.304Z,11.50
2017-12-17T02:30:23.122Z,11.23
2017-12-17T02:32:50.551Z,11.40
2017-12-17T02:35:17.302Z,12.50
2017-12-17T02:37:46.851Z,11.77
2017-12-17T02:40:15.388Z,13.25
2017-12-17T02:42:42.273Z,14.60
2017-12-17T02:45:11.023Z,11.45
2017-12-17T02:47:38.074Z,14.20
2017-12-17T02:50:06.489Z,10.48
2017-12-17T02:52:34.786Z,11.50
2017-12-17T02:55:03.371Z,11.23
2017-12-17T02:57:30.890Z,11.57
2017-12-17T02:59:58.009Z,10.80
2017-12-17T03:02:25.506Z,10.55
2017-12-17T03:04:55.235Z,12.45
2017-12-17T03:07:23.004Z,10.80
2017-12-17T03:09:51.479Z,11.55
2017-12-17T03:12:19.313Z,11.85
2017-12-17T03:14:47.647Z,10.82
2017-12-17T03:17:14.490Z,12.68
2017-12-17T03:19:41.386Z,10.02
2017-12-17T03:22:09.421Z,13.10
2017-12-17T03:24:37.217Z,10.50
2017-12-17T03:27:04.617Z,10.65
2017-12-17T03:29:32.014Z,10.88
2017-12-17T03:31:59.356Z,10.65
2017-12-17T03:34:27.789Z,10.57
2017-12-17T03:36:56.718Z,10.77
2017-12-17T03:39:25.524Z,11.23
2017-12-17T03:41:52.576Z,12.02
2017-12-17T03:44:21.147Z,9.98
2017-12-17T03:46:49.953Z,13.55
2017-12-17T03:49:19.590Z,10.88
2017-12-17T03:51:46.385Z,10.85
2017-12-17T03:54:14.658Z,9.48
2017-12-17T03:56:41.610Z,11.70
2017-12-17T03:59:09.045Z,10.88
2017-12-17T04:01:37.529Z,11.20
2017-12-17T04:04:05.410Z,12.82
2017-12-17T04:06:36.291Z,13.77
2017-12-17T04:09:06.269Z,12.18
2017-12-17T04:11:33.026Z,12.55
2017-12-17T04:14:01.722Z,13.50
2017-12-17T04:16:30.622Z,12.20
2017-12-17T04:18:58.627Z,12.18
2017-12-17T04:21:25.878Z,11.40
2017-12-17T04:23:52.627Z,12.02
2017-12-17T04:26:21.448Z,11.40
2017-12-17T04:28:48.354Z,13.27
2017-12-17T04:31:16.030Z,11.25
2017-12-17T04:33:43.226Z,11.52
2017-12-17T04:36:11.926Z,12.02
2017-12-17T04:38:38.710Z,12.20
2017-12-17T04:41:06.468Z,11.48
2017-12-17T04:43:35.767Z,11.20
2017-12-17T04:46:03.336Z,13.27
2017-12-17T04:48:33.035Z,12.73
2017-12-17T04:51:02.169Z,11.45
2017-12-17T04:53:30.610Z,13.52
2017-12-17T04:56:02.695Z,11.48
2017-12-17T04:58:31.498Z,12.37
2017-12-17T05:01:00.631Z,13.62
2017-12-17T05:03:31.191Z,12.45
2017-12-17T05:05:58.835Z,11.23
2017-12-17T05:08:25.712Z,13.38
2017-12-17T05:10:53.984Z,10.45
2017-12-17T05:13:21.773Z,12.20
2017-12-17T05:15:48.995Z,13.07
2017-12-17T05:18:16.606Z,11.02
2017-12-17T05:20:43.403Z,14.13
2017-12-17T05:23:10.402Z,10.50
2017-12-17T05:25:37.213Z,9.70
2017-12-17T05:28:05.580Z,10.88
2017-12-17T05:30:33.027Z,8.88
2017-12-17T05:33:01.685Z,10.27
2017-12-17T05:35:28.999Z,10.88
2017-12-17T05:38:00.176Z,11.43
2017-12-17T05:40:27.924Z,9.23
2017-12-17T05:42:55.568Z,10.80
2017-12-17T05:45:25.970Z,11.02
2017-12-17T05:50:25.674Z,10.48
2017-12-17T05:52:55.157Z,16.23
2017-12-17T05:55:22.051Z,12.73
2017-12-17T05:57:49.838Z,13.50
2017-12-17T06:00:17.559Z,11.63
2017-12-17T06:02:45.131Z,12.02
2017-12-17T06:05:17.039Z,10.88
2017-12-17T06:07:44.063Z,10.07
2017-12-17T06:10:13.703Z,11.77
2017-12-17T06:12:40.925Z,9.80
2017-12-17T06:15:09.189Z,11.40
2017-12-17T06:17:39.512Z,11.45
2017-12-17T06:20:08.382Z,10.60
2017-12-17T06:22:40.883Z,13.23
2017-12-17T06:25:08.086Z,10.05
2017-12-17T06:27:37.195Z,12.07
2017-12-17T06:30:15.290Z,12.50
2017-12-17T06:32:45.376Z,12.30
2017-12-17T06:35:13.666Z,13.15
2017-12-17T06:37:40.893Z,11.60
2017-12-17T06:40:08.330Z,12.50
2017-12-17T06:42:35.966Z,11.63
2017-12-17T06:45:06.325Z,10.50
2017-12-17T06:47:36.112Z,10.60
2017-12-17T06:52:41.971Z,11.30
2017-12-17T06:55:09.917Z,10.45
2017-12-17T07:00:11.030Z,10.98
2017-12-17T07:02:39.866Z,12.30
2017-12-17T07:05:07.315Z,12.35
2017-12-17T07:07:37.411Z,12.88
2017-12-17T07:10:06.752Z,11.30
2017-12-17T07:12:36.175Z,14.10
2017-12-17T07:15:06.735Z,12.63
2017-12-17T07:17:36.163Z,11.70
2017-12-17T07:22:40.351Z,13.05
2017-12-17T07:25:08.648Z,14.18
2017-12-17T07:27:37.322Z,11.88
2017-12-17T07:30:05.679Z,13.20
2017-12-17T07:32:37.376Z,11.12
2017-12-17T07:35:04.518Z,12.63
2017-12-17T07:37:33.830Z,12.98
2017-12-17T07:42:46.740Z,14.55
2017-12-17T07:45:13.981Z,12.50
2017-12-17T07:47:40.733Z,12.57
2017-12-17T07:50:08.352Z,13.77
2017-12-17T07:52:35.145Z,12.43
2017-12-17T07:55:01.861Z,12.57
2017-12-17T07:57:28.598Z,13.00
2017-12-17T07:59:55.325Z,11.60
2017-12-17T08:02:22.066Z,12.15
2017-12-17T08:04:50.651Z,12.85
2017-12-17T08:07:17.399Z,13.90
2017-12-17T08:09:44.126Z,13.25
2017-12-17T08:12:10.869Z,11.82
2017-12-17T08:14:37.596Z,12.30
2017-12-17T08:17:05.600Z,11.45
2017-12-17T08:19:32.329Z,11.48
2017-12-17T08:21:59.106Z,9.50
2017-12-17T08:24:25.825Z,11.90
2017-12-17T08:26:52.570Z,10.75
2017-12-17T08:29:19.296Z,12.18
2017-12-17T08:31:46.430Z,13.80
2017-12-17T08:34:13.157Z,11.27
2017-12-17T08:36:39.906Z,12.63
2017-12-17T08:39:06.640Z,11.05
2017-12-17T08:41:33.378Z,12.05
2017-12-17T08:44:00.708Z,11.60
2017-12-17T08:46:27.446Z,11.15
2017-12-17T08:48:54.165Z,12.25
2017-12-17T08:51:21.051Z,11.18
2017-12-17T08:53:47.828Z,10.82
2017-12-17T08:56:14.577Z,10.77
2017-12-17T08:58:41.279Z,15.07
2017-12-17T09:01:08.034Z,11.65
2017-12-17T09:03:34.758Z,10.93
2017-12-17T09:06:01.963Z,11.75
2017-12-17T09:08:28.736Z,11.60
2017-12-17T09:10:55.515Z,10.50
2017-12-17T09:13:22.253Z,10.82
2017-12-17T09:15:48.980Z,11.73
2017-12-17T09:20:58.023Z,10.23
2017-12-17T09:23:24.760Z,11.20
2017-12-17T09:25:51.486Z,10.93
2017-12-17T09:28:18.246Z,11.25
2017-12-17T09:30:44.966Z,10.23
2017-12-17T09:33:11.710Z,10.50
2017-12-17T09:35:38.430Z,11.10
2017-12-17T09:38:05.175Z,10.13
2017-12-17T09:40:31.890Z,9.77
2017-12-17T09:42:58.626Z,10.55
2017-12-17T09:45:25.382Z,19.65
2017-12-17T09:47:52.106Z,10.38
2017-12-17T09:50:18.831Z,11.23
2017-12-17T09:52:45.577Z,9.55
2017-12-17T09:55:12.299Z,11.07
2017-12-17T09:57:39.042Z,10.88
2017-12-17T10:00:05.754Z,10.90
2017-12-17T10:02:32.489Z,9.98
2017-12-17T10:05:00.059Z,9.63
2017-12-17T10:07:26.797Z,9.88
2017-12-17T10:09:53.543Z,11.27
2017-12-17T10:12:20.282Z,9.95
2017-12-17T10:14:47.023Z,12.77
2017-12-17T10:17:13.754Z,10.98
2017-12-17T10:19:41.290Z,10.88
2017-12-17T10:22:08.031Z,11.45
2017-12-17T10:24:34.751Z,9.43
2017-12-17T10:27:01.470Z,10.88
2017-12-17T10:29:28.218Z,12.02
2017-12-17T10:31:54.938Z,9.77
2017-12-17T10:34:21.673Z,15.15
2017-12-17T10:36:48.399Z,10.27
2017-12-17T10:39:15.146Z,9.50
2017-12-17T10:41:42.677Z,9.82
2017-12-17T10:44:11.152Z,10.70
2017-12-17T10:46:37.882Z,11.35
2017-12-17T10:49:04.630Z,10.30
2017-12-17T10:51:31.357Z,12.57
2017-12-17T10:53:58.091Z,9.02
2017-12-17T10:56:25.246Z,9.27
2017-12-17T10:58:55.678Z,10.57
2017-12-17T11:01:22.944Z,13.73
2017-12-17T11:04:01.363Z,10.18
2017-12-17T11:06:29.198Z,11.52
2017-12-17T11:08:55.985Z,10.30
2017-12-17T11:11:23.067Z,9.38
2017-12-17T11:13:51.883Z,11.25
2017-12-17T11:16:29.463Z,10.25
2017-12-17T11:18:58.329Z,10.60
2017-12-17T11:21:25.589Z,10.75
2017-12-17T11:23:58.470Z,11.50
2017-12-17T11:26:29.251Z,10.50
2017-12-17T11:29:02.466Z,12.35
2017-12-17T11:34:05.713Z,9.10
2017-12-17T11:36:33.377Z,12.57
2017-12-17T11:39:01.254Z,8.85
2017-12-17T11:41:35.378Z,13.13
2017-12-17T11:44:05.929Z,10.70
2017-12-17T11:46:34.815Z,10.77
2017-12-17T11:49:01.554Z,11.05
2017-12-17T11:51:30.819Z,9.52
2017-12-17T11:53:59.142Z,10.45
2017-12-17T11:56:30.494Z,11.73
2017-12-17T12:04:19.746Z,8.82
2017-12-17T12:06:49.799Z,9.25
2017-12-17T12:09:35.481Z,9.65
2017-12-17T12:12:09.330Z,11.07
2017-12-17T12:17:26.723Z,9.65
2017-12-17T12:20:51.578Z,7.87
2017-12-17T12:23:21.800Z,8.52
2017-12-17T12:25:50.361Z,7.97
2017-12-17T12:28:17.098Z,9.02
2017-12-17T12:30:44.675Z,8.23
2017-12-17T12:33:13.287Z,8.55
2017-12-17T12:35:48.948Z,10.48
2017-12-17T12:38:17.091Z,10.55
2017-12-17T12:40:48.602Z,10.18
2017-12-17T12:43:15.567Z,8.77
2017-12-17T13:07:35.799Z,11.45
2017-12-17T13:10:02.698Z,9.90
2017-12-17T13:12:30.296Z,8.35
2017-12-17T13:14:58.499Z,9.60
2017-12-17T13:17:25.242Z,9.23
2017-12-17T13:19:51.978Z,11.12
2017-12-17T13:22:18.716Z,11.75
2017-12-17T13:24:45.456Z,13.80
2017-12-17T13:27:12.228Z,9.25
2017-12-17T13:29:38.954Z,9.98
2017-12-17T13:32:05.741Z,9.88
2017-12-17T13:34:32.811Z,11.20
2017-12-17T13:37:00.470Z,9.20
2017-12-17T13:39:27.206Z,9.02
2017-12-17T13:41:54.178Z,10.25
2017-12-17T13:44:20.952Z,8.45
2017-12-17T13:46:47.654Z,9.18
2017-12-17T13:49:14.466Z,9.18
2017-12-17T13:51:41.209Z,9.70
2017-12-17T13:54:07.936Z,9.88
2017-12-17T13:56:34.658Z,10.40
2017-12-17T13:59:01.396Z,9.25
2017-12-17T14:01:28.142Z,16.62
2017-12-17T14:03:55.662Z,12.43
2017-12-17T14:06:22.458Z,14.70
2017-12-17T14:08:49.190Z,13.70
2017-12-17T14:11:15.993Z,15.68
2017-12-17T14:13:43.460Z,13.50
2017-12-17T14:16:10.989Z,16.00
2017-12-17T14:18:37.711Z,15.20
2017-12-17T14:21:04.441Z,16.67
2017-12-17T14:23:31.182Z,18.70
2017-12-17T14:25:57.968Z,18.15
2017-12-17T14:28:24.735Z,19.85
2017-12-17T14:30:52.264Z,17.67
2017-12-17T14:33:19.802Z,19.50
2017-12-17T14:35:46.718Z,19.02
2017-12-17T14:38:18.179Z,20.23
2017-12-17T14:40:45.063Z,20.45
2017-12-17T14:43:11.835Z,18.90
2017-12-17T14:45:39.366Z,14.90
2017-12-17T14:48:06.127Z,19.95
2017-12-17T14:50:32.873Z,21.15
2017-12-17T14:55:30.638Z,18.52
2017-12-17T14:57:59.262Z,21.30
2017-12-17T15:00:26.042Z,20.33
2017-12-17T15:02:52.791Z,21.45
2017-12-17T15:05:19.536Z,19.58
2017-12-17T15:07:46.287Z,21.08
2017-12-17T15:10:13.058Z,24.77
2017-12-17T15:12:39.790Z,23.10
2017-12-17T15:15:06.526Z,22.35
2017-12-17T15:17:33.288Z,22.33
2017-12-17T15:20:00.058Z,22.58
2017-12-17T15:22:30.446Z,26.75
2017-12-17T15:24:57.166Z,23.95
2017-12-17T15:27:23.942Z,25.08
2017-12-17T15:29:53.411Z,24.12
2017-12-17T15:32:21.851Z,23.20
2017-12-17T15:34:48.590Z,21.92
2017-12-17T15:37:15.342Z,21.62
2017-12-17T15:39:42.110Z,24.65
2017-12-17T15:42:09.762Z,26.35
2017-12-17T15:44:36.507Z,28.65
2017-12-17T15:47:05.005Z,30.75
2017-12-17T15:49:31.734Z,31.45
2017-12-17T15:51:58.542Z,30.65
2017-12-17T15:54:27.478Z,32.58
2017-12-17T15:56:54.306Z,34.15
2017-12-17T15:59:21.094Z,34.50
2017-12-17T16:01:47.861Z,35.78
2017-12-17T16:04:14.888Z,35.67
2017-12-17T16:06:47.294Z,33.95
2017-12-17T16:09:14.023Z,36.60
2017-12-17T16:11:40.767Z,39.95
2017-12-17T16:14:08.231Z,35.75
2017-12-17T16:16:34.959Z,35.20
2017-12-17T16:19:01.702Z,34.20
2017-12-17T16:21:28.489Z,27.85
2017-12-17T16:23:55.230Z,30.42
2017-12-17T16:26:21.945Z,32.13
2017-12-17T16:28:48.726Z,30.35
2017-12-17T16:31:16.367Z,30.20
2017-12-17T16:33:45.556Z,29.73
2017-12-17T16:36:16.627Z,32.83
2017-12-17T16:38:43.603Z,27.87
2017-12-17T16:41:10.333Z,26.15
2017-12-17T16:43:37.122Z,27.17
2017-12-17T16:46:04.376Z,27.25
2017-12-17T16:48:31.110Z,27.83
2017-12-17T16:50:57.839Z,30.25
2017-12-17T16:53:24.578Z,31.25
2017-12-17T16:55:51.346Z,33.55
2017-12-17T16:58:18.872Z,40.40
2017-12-17T17:00:45.723Z,32.10
2017-12-17T17:03:12.510Z,34.63
2017-12-17T17:05:39.242Z,36.33
2017-12-17T17:08:06.110Z,31.08
2017-12-17T17:10:32.890Z,33.75
2017-12-17T17:12:59.634Z,36.30
2017-12-17T17:15:26.355Z,34.20
2017-12-17T17:17:53.113Z,37.13
2017-12-17T17:20:19.855Z,41.05
2017-12-17T17:22:46.595Z,36.92
2017-12-17T17:25:13.378Z,42.42
2017-12-17T17:27:40.137Z,55.47
2017-12-17T17:30:06.931Z,42.92
2017-12-17T17:32:33.734Z,46.40
2017-12-17T17:40:16.198Z,40.00
2017-12-17T17:42:42.933Z,48.65
2017-12-17T17:45:09.669Z,36.85
2017-12-17T17:47:36.431Z,42.78
2017-12-17T17:50:03.236Z,39.50
2017-12-17T17:52:29.994Z,35.28
2017-12-17T17:54:56.716Z,30.80
2017-12-17T17:59:55.508Z,29.10
2017-12-17T18:02:23.982Z,27.92
2017-12-17T18:04:59.390Z,27.75
2017-12-17T18:10:01.820Z,23.58
2017-12-17T18:12:33.731Z,23.58
2017-12-17T18:15:01.587Z,26.77
2017-12-17T18:17:28.607Z,26.85
2017-12-17T18:22:33.767Z,25.77
2017-12-17T18:25:05.454Z,23.50
2017-12-17T18:27:32.201Z,26.62
2017-12-17T18:29:59.638Z,28.73
2017-12-17T18:32:26.385Z,20.55
2017-12-17T18:34:57.888Z,23.83
2017-12-17T18:37:26.122Z,21.83
2017-12-17T18:42:36.351Z,17.98
2017-12-17T18:45:05.853Z,19.00
2017-12-17T18:47:39.651Z,17.87
2017-12-17T18:52:42.448Z,18.87
2017-12-17T18:55:10.699Z,17.52
2017-12-17T19:00:11.410Z,21.83
2017-12-17T19:02:39.822Z,18.90
2017-12-17T19:05:07.435Z,21.02
2017-12-17T19:07:36.428Z,18.85
2017-12-17T19:10:04.879Z,21.35
2017-12-17T19:12:32.631Z,21.27
2017-12-17T19:14:59.740Z,21.95
2017-12-17T19:17:29.167Z,19.67
2017-12-17T19:19:58.615Z,18.50
2017-12-17T19:22:26.162Z,19.23
2017-12-17T19:24:53.074Z,23.10
2017-12-17T19:27:21.182Z,19.83
2017-12-17T19:32:21.022Z,23.08
2017-12-17T19:34:51.578Z,18.60
2017-12-17T19:37:20.722Z,19.00
2017-12-17T19:39:47.593Z,20.45
2017-12-17T19:42:14.363Z,18.52
2017-12-17T19:44:41.111Z,19.87
2017-12-17T19:47:12.501Z,20.58
2017-12-17T19:49:39.369Z,19.62
2017-12-17T19:52:07.398Z,20.65
2017-12-17T19:54:35.506Z,17.23
2017-12-17T19:57:04.315Z,18.02
2017-12-17T19:59:31.340Z,18.08
2017-12-17T20:01:59.030Z,21.75
2017-12-17T20:04:26.677Z,20.75
2017-12-17T20:06:57.158Z,18.80
2017-12-17T20:12:00.871Z,18.90
2017-12-17T20:14:27.946Z,17.25
2017-12-17T20:16:57.027Z,17.73
2017-12-17T20:19:24.566Z,16.05
2017-12-17T20:21:52.259Z,14.85
2017-12-17T20:24:19.678Z,16.12
2017-12-17T20:26:54.750Z,19.65
2017-12-17T20:29:25.379Z,18.30
2017-12-17T20:31:52.841Z,17.95
2017-12-17T20:34:25.549Z,18.55
2017-12-17T20:36:53.706Z,19.17
2017-12-17T20:39:23.337Z,16.12
2017-12-17T20:41:52.244Z,19.70
2017-12-17T20:44:20.498Z,19.98
2017-12-17T20:46:48.925Z,25.25
2017-12-17T20:49:15.680Z,20.48
2017-12-17T20:51:46.391Z,20.77
2017-12-17T20:54:14.251Z,21.08
2017-12-17T20:56:45.450Z,17.92
2017-12-17T20:59:12.981Z,23.23
2017-12-17T21:01:39.719Z,20.35
2017-12-17T21:04:06.721Z,21.62
2017-12-17T21:06:38.738Z,18.40
2017-12-17T21:09:06.430Z,19.25
2017-12-17T21:11:33.290Z,19.15
2017-12-17T21:14:03.765Z,24.17
2017-12-17T21:16:41.886Z,20.17
2017-12-17T21:19:09.326Z,22.42
2017-12-17T21:21:36.921Z,20.40
2017-12-17T21:26:55.544Z,22.52
2017-12-17T21:29:42.670Z,19.42
2017-12-17T21:44:04.554Z,21.45
2017-12-17T21:52:04.605Z,22.48
2017-12-17T21:55:36.318Z,21.70
2017-12-17T22:03:51.284Z,22.02
2017-12-17T22:12:00.350Z,26.92
2017-12-17T22:17:19.317Z,19.77
2017-12-17T22:19:49.359Z,19.87
2017-12-17T22:22:22.354Z,21.95
2017-12-17T22:24:54.365Z,20.10
2017-12-17T22:27:28.854Z,18.25
2017-12-17T22:32:52.866Z,20.15
2017-12-17T22:35:24.207Z,19.75
2017-12-17T22:38:00.138Z,20.70
2017-12-17T22:40:41.969Z,20.33
2017-12-17T22:43:13.385Z,19.95
2017-12-17T22:45:43.094Z,16.20
2017-12-17T22:56:14.594Z,18.67
2017-12-17T23:01:39.638Z,16.27
2017-12-17T23:09:32.743Z,15.25
2017-12-17T23:12:02.122Z,17.33
2017-12-17T23:14:33.778Z,15.23
2017-12-17T23:19:34.215Z,13.62
2017-12-17T23:24:36.277Z,10.75
2017-12-17T23:27:07.544Z,11.48
2017-12-17T23:29:36.561Z,12.55
2017-12-17T23:32:09.003Z,10.30
2017-12-17T23:39:47.690Z,8.80
2017-12-17T23:42:18.627Z,10.80
2017-12-17T23:44:46.396Z,12.23
2017-12-17T23:47:16.294Z,9.10
2017-12-17T23:49:45.679Z,9.68
2017-12-17T23:52:17.788Z,8.35
2017-12-17T23:54:47.033Z,9.55
2017-12-17T23:59:54.559Z,8.45
